sensor_id;sensor_type;location;lat;lon;timestamp;P1;durP1;ratioP1;P2;durP2;ratioP2
35488;SDS011;21602;55.670;37.578;2023-03-26T00:02:18;14.45;;;10.60;;
35488;SDS011;21602;55.670;37.578;2023-03-26T00:04:44;15.13;;;12.02;;
35488;SDS011;21602;55.670;37.578;2023-03-26T00:07:10;13.05;;;11.10;;
35488;SDS011;21602;55.670;37.578;2023-03-26T00:09:36;14.50;;;11.70;;
35488;SDS011;21602;55.670;37.578;2023-03-26T00:12:03;12.82;;;10.52;;
35488;SDS011;21602;55.670;37.578;2023-03-26T00:14:28;12.85;;;11.15;;
35488;SDS011;21602;55.670;37.578;2023-03-26T00:16:54;13.32;;;10.65;;
35488;SDS011;21602;55.670;37.578;2023-03-26T00:19:39;15.35;;;11.32;;
35488;SDS011;21602;55.670;37.578;2023-03-26T00:22:04;13.48;;;11.07;;
35488;SDS011;21602;55.670;37.578;2023-03-26T00:24:30;12.23;;;10.82;;
35488;SDS011;21602;55.670;37.578;2023-03-26T00:26:56;13.32;;;11.18;;
35488;SDS011;21602;55.670;37.578;2023-03-26T00:29:41;14.82;;;11.40;;
35488;SDS011;21602;55.670;37.578;2023-03-26T00:32:07;14.55;;;12.10;;
35488;SDS011;21602;55.670;37.578;2023-03-26T00:34:33;13.70;;;11.68;;
35488;SDS011;21602;55.670;37.578;2023-03-26T00:36:59;14.20;;;11.45;;
35488;SDS011;21602;55.670;37.578;2023-03-26T00:39:27;12.43;;;10.90;;
35488;SDS011;21602;55.670;37.578;2023-03-26T00:41:54;13.85;;;11.27;;
35488;SDS011;21602;55.670;37.578;2023-03-26T00:44:20;12.77;;;10.50;;
35488;SDS011;21602;55.670;37.578;2023-03-26T00:49:50;14.05;;;11.35;;
35488;SDS011;21602;55.670;37.578;2023-03-26T00:52:16;14.30;;;11.00;;
35488;SDS011;21602;55.670;37.578;2023-03-26T00:54:46;13.95;;;11.52;;
35488;SDS011;21602;55.670;37.578;2023-03-26T00:57:33;13.48;;;11.10;;
35488;SDS011;21602;55.670;37.578;2023-03-26T01:00:26;15.02;;;12.02;;
35488;SDS011;21602;55.670;37.578;2023-03-26T01:02:56;15.02;;;11.93;;
35488;SDS011;21602;55.670;37.578;2023-03-26T01:07:59;14.68;;;12.60;;
35488;SDS011;21602;55.670;37.578;2023-03-26T01:10:49;15.07;;;12.02;;
35488;SDS011;21602;55.670;37.578;2023-03-26T01:13:21;16.10;;;13.55;;
35488;SDS011;21602;55.670;37.578;2023-03-26T01:15:49;14.70;;;11.52;;
35488;SDS011;21602;55.670;37.578;2023-03-26T01:18:22;16.45;;;12.70;;
35488;SDS011;21602;55.670;37.578;2023-03-26T01:21:07;17.60;;;13.77;;
35488;SDS011;21602;55.670;37.578;2023-03-26T01:24:12;16.75;;;12.45;;
35488;SDS011;21602;55.670;37.578;2023-03-26T01:27:03;17.60;;;13.95;;
35488;SDS011;21602;55.670;37.578;2023-03-26T01:29:52;17.60;;;13.60;;
35488;SDS011;21602;55.670;37.578;2023-03-26T01:32:49;17.23;;;12.73;;
35488;SDS011;21602;55.670;37.578;2023-03-26T01:38:26;15.98;;;12.90;;
35488;SDS011;21602;55.670;37.578;2023-03-26T01:41:04;16.58;;;12.88;;
35488;SDS011;21602;55.670;37.578;2023-03-26T01:46:45;15.50;;;12.35;;
35488;SDS011;21602;55.670;37.578;2023-03-26T01:49:12;18.20;;;12.93;;
35488;SDS011;21602;55.670;37.578;2023-03-26T01:51:40;15.52;;;12.43;;
35488;SDS011;21602;55.670;37.578;2023-03-26T01:54:07;18.52;;;13.45;;
35488;SDS011;21602;55.670;37.578;2023-03-26T01:57:05;15.45;;;11.95;;
35488;SDS011;21602;55.670;37.578;2023-03-26T02:00:19;16.13;;;12.55;;
35488;SDS011;21602;55.670;37.578;2023-03-26T02:03:08;17.58;;;12.50;;
35488;SDS011;21602;55.670;37.578;2023-03-26T02:08:24;17.10;;;13.05;;
35488;SDS011;21602;55.670;37.578;2023-03-26T02:11:04;14.60;;;12.27;;
35488;SDS011;21602;55.670;37.578;2023-03-26T02:13:36;17.13;;;12.27;;
35488;SDS011;21602;55.670;37.578;2023-03-26T02:16:03;15.93;;;11.90;;
35488;SDS011;21602;55.670;37.578;2023-03-26T02:18:32;16.05;;;12.55;;
35488;SDS011;21602;55.670;37.578;2023-03-26T02:21:38;16.05;;;12.85;;
35488;SDS011;21602;55.670;37.578;2023-03-26T02:24:04;19.27;;;14.02;;
35488;SDS011;21602;55.670;37.578;2023-03-26T02:26:53;17.05;;;12.85;;
35488;SDS011;21602;55.670;37.578;2023-03-26T02:29:19;17.65;;;13.18;;
35488;SDS011;21602;55.670;37.578;2023-03-26T02:31:46;16.85;;;13.10;;
35488;SDS011;21602;55.670;37.578;2023-03-26T02:34:14;20.35;;;13.68;;
35488;SDS011;21602;55.670;37.578;2023-03-26T02:36:48;19.27;;;13.55;;
35488;SDS011;21602;55.670;37.578;2023-03-26T02:39:15;18.88;;;14.27;;
35488;SDS011;21602;55.670;37.578;2023-03-26T02:41:48;19.42;;;14.73;;
35488;SDS011;21602;55.670;37.578;2023-03-26T02:44:14;20.15;;;15.23;;
35488;SDS011;21602;55.670;37.578;2023-03-26T02:46:58;20.48;;;14.95;;
35488;SDS011;21602;55.670;37.578;2023-03-26T02:49:47;21.98;;;14.88;;
35488;SDS011;21602;55.670;37.578;2023-03-26T02:52:33;16.33;;;12.93;;
35488;SDS011;21602;55.670;37.578;2023-03-26T02:55:00;20.80;;;13.73;;
35488;SDS011;21602;55.670;37.578;2023-03-26T02:57:28;19.52;;;14.65;;
35488;SDS011;21602;55.670;37.578;2023-03-26T03:00:13;21.13;;;14.77;;
35488;SDS011;21602;55.670;37.578;2023-03-26T03:02:48;17.25;;;13.65;;
35488;SDS011;21602;55.670;37.578;2023-03-26T03:05:44;19.40;;;14.77;;
35488;SDS011;21602;55.670;37.578;2023-03-26T03:08:23;21.65;;;15.48;;
35488;SDS011;21602;55.670;37.578;2023-03-26T03:11:11;18.52;;;14.27;;
35488;SDS011;21602;55.670;37.578;2023-03-26T03:13:41;20.00;;;14.07;;
35488;SDS011;21602;55.670;37.578;2023-03-26T03:16:08;22.48;;;16.00;;
35488;SDS011;21602;55.670;37.578;2023-03-26T03:18:35;22.40;;;15.65;;
35488;SDS011;21602;55.670;37.578;2023-03-26T03:21:02;20.38;;;14.57;;
35488;SDS011;21602;55.670;37.578;2023-03-26T03:23:30;21.48;;;15.93;;
35488;SDS011;21602;55.670;37.578;2023-03-26T03:26:09;22.77;;;14.93;;
35488;SDS011;21602;55.670;37.578;2023-03-26T03:32:18;19.27;;;13.95;;
35488;SDS011;21602;55.670;37.578;2023-03-26T03:34:48;22.15;;;15.10;;
35488;SDS011;21602;55.670;37.578;2023-03-26T03:37:17;21.08;;;14.82;;
35488;SDS011;21602;55.670;37.578;2023-03-26T03:39:49;23.30;;;15.38;;
35488;SDS011;21602;55.670;37.578;2023-03-26T03:42:18;17.77;;;14.48;;
35488;SDS011;21602;55.670;37.578;2023-03-26T03:44:44;20.42;;;16.25;;
35488;SDS011;21602;55.670;37.578;2023-03-26T03:47:33;20.25;;;15.60;;
35488;SDS011;21602;55.670;37.578;2023-03-26T03:49:59;21.48;;;16.02;;
35488;SDS011;21602;55.670;37.578;2023-03-26T03:55:30;21.30;;;16.20;;
35488;SDS011;21602;55.670;37.578;2023-03-26T03:58:14;24.15;;;17.23;;
35488;SDS011;21602;55.670;37.578;2023-03-26T04:00:50;22.52;;;16.38;;
35488;SDS011;21602;55.670;37.578;2023-03-26T04:03:35;23.88;;;15.45;;
35488;SDS011;21602;55.670;37.578;2023-03-26T04:06:08;21.13;;;14.85;;
35488;SDS011;21602;55.670;37.578;2023-03-26T04:11:05;23.60;;;15.93;;
35488;SDS011;21602;55.670;37.578;2023-03-26T04:13:50;21.02;;;15.23;;
35488;SDS011;21602;55.670;37.578;2023-03-26T04:16:24;22.95;;;16.50;;
35488;SDS011;21602;55.670;37.578;2023-03-26T04:18:50;24.23;;;17.70;;
35488;SDS011;21602;55.670;37.578;2023-03-26T04:21:16;26.95;;;18.80;;
35488;SDS011;21602;55.670;37.578;2023-03-26T04:23:44;23.60;;;18.13;;
35488;SDS011;21602;55.670;37.578;2023-03-26T04:26:21;24.08;;;18.80;;
35488;SDS011;21602;55.670;37.578;2023-03-26T04:29:07;26.23;;;19.17;;
35488;SDS011;21602;55.670;37.578;2023-03-26T04:31:39;26.55;;;20.85;;
35488;SDS011;21602;55.670;37.578;2023-03-26T04:34:08;23.85;;;19.30;;
35488;SDS011;21602;55.670;37.578;2023-03-26T04:36:54;29.30;;;21.17;;
35488;SDS011;21602;55.670;37.578;2023-03-26T04:39:23;32.40;;;24.48;;
35488;SDS011;21602;55.670;37.578;2023-03-26T04:42:16;37.88;;;26.05;;
35488;SDS011;21602;55.670;37.578;2023-03-26T04:44:58;35.00;;;27.92;;
35488;SDS011;21602;55.670;37.578;2023-03-26T04:47:28;44.58;;;28.98;;
35488;SDS011;21602;55.670;37.578;2023-03-26T04:49:54;43.55;;;30.08;;
35488;SDS011;21602;55.670;37.578;2023-03-26T04:52:21;41.45;;;31.20;;
35488;SDS011;21602;55.670;37.578;2023-03-26T04:55:11;36.63;;;28.63;;
35488;SDS011;21602;55.670;37.578;2023-03-26T04:58:04;39.08;;;29.55;;
35488;SDS011;21602;55.670;37.578;2023-03-26T05:00:53;38.22;;;27.52;;
35488;SDS011;21602;55.670;37.578;2023-03-26T05:03:19;44.55;;;30.08;;
35488;SDS011;21602;55.670;37.578;2023-03-26T05:05:47;42.57;;;28.73;;
35488;SDS011;21602;55.670;37.578;2023-03-26T05:08:14;43.90;;;30.92;;
35488;SDS011;21602;55.670;37.578;2023-03-26T05:10:41;47.65;;;31.17;;
35488;SDS011;21602;55.670;37.578;2023-03-26T05:13:15;49.08;;;29.52;;
35488;SDS011;21602;55.670;37.578;2023-03-26T05:15:47;45.22;;;29.00;;
35488;SDS011;21602;55.670;37.578;2023-03-26T05:18:24;46.78;;;27.67;;
35488;SDS011;21602;55.670;37.578;2023-03-26T05:20:51;50.30;;;33.42;;
35488;SDS011;21602;55.670;37.578;2023-03-26T05:26:22;43.83;;;28.02;;
35488;SDS011;21602;55.670;37.578;2023-03-26T05:29:07;42.83;;;26.33;;
35488;SDS011;21602;55.670;37.578;2023-03-26T05:31:53;47.30;;;28.38;;
35488;SDS011;21602;55.670;37.578;2023-03-26T05:34:19;48.40;;;28.42;;
35488;SDS011;21602;55.670;37.578;2023-03-26T05:36:49;43.72;;;27.30;;
35488;SDS011;21602;55.670;37.578;2023-03-26T05:39:27;50.75;;;29.15;;
35488;SDS011;21602;55.670;37.578;2023-03-26T05:42:00;43.67;;;25.60;;
35488;SDS011;21602;55.670;37.578;2023-03-26T05:44:36;47.78;;;26.50;;
35488;SDS011;21602;55.670;37.578;2023-03-26T05:47:13;52.77;;;27.70;;
35488;SDS011;21602;55.670;37.578;2023-03-26T05:52:43;49.55;;;25.90;;
35488;SDS011;21602;55.670;37.578;2023-03-26T05:55:45;52.80;;;28.90;;
35488;SDS011;21602;55.670;37.578;2023-03-26T05:58:33;94.38;;;50.78;;
35488;SDS011;21602;55.670;37.578;2023-03-26T06:01:04;50.90;;;26.92;;
35488;SDS011;21602;55.670;37.578;2023-03-26T06:03:52;48.35;;;25.50;;
35488;SDS011;21602;55.670;37.578;2023-03-26T06:06:20;39.27;;;21.63;;
35488;SDS011;21602;55.670;37.578;2023-03-26T06:08:56;41.15;;;20.45;;
35488;SDS011;21602;55.670;37.578;2023-03-26T06:11:22;43.92;;;21.48;;
35488;SDS011;21602;55.670;37.578;2023-03-26T06:13:48;36.25;;;21.23;;
35488;SDS011;21602;55.670;37.578;2023-03-26T06:16:15;41.55;;;21.88;;
35488;SDS011;21602;55.670;37.578;2023-03-26T06:18:44;49.97;;;24.70;;
35488;SDS011;21602;55.670;37.578;2023-03-26T06:21:49;49.03;;;24.27;;
35488;SDS011;21602;55.670;37.578;2023-03-26T06:24:21;49.65;;;24.83;;
35488;SDS011;21602;55.670;37.578;2023-03-26T06:27:06;46.63;;;24.60;;
35488;SDS011;21602;55.670;37.578;2023-03-26T06:29:50;51.58;;;26.60;;
35488;SDS011;21602;55.670;37.578;2023-03-26T06:32:45;41.22;;;21.38;;
35488;SDS011;21602;55.670;37.578;2023-03-26T06:35:18;40.45;;;22.05;;
35488;SDS011;21602;55.670;37.578;2023-03-26T06:37:44;39.60;;;20.35;;
35488;SDS011;21602;55.670;37.578;2023-03-26T06:40:13;39.55;;;18.17;;
35488;SDS011;21602;55.670;37.578;2023-03-26T06:42:58;34.60;;;17.17;;
35488;SDS011;21602;55.670;37.578;2023-03-26T06:45:51;26.90;;;14.45;;
35488;SDS011;21602;55.670;37.578;2023-03-26T06:48:40;29.00;;;15.02;;
35488;SDS011;21602;55.670;37.578;2023-03-26T06:54:30;27.70;;;15.35;;
35488;SDS011;21602;55.670;37.578;2023-03-26T06:57:04;29.90;;;15.15;;
35488;SDS011;21602;55.670;37.578;2023-03-26T07:02:33;31.83;;;16.73;;
35488;SDS011;21602;55.670;37.578;2023-03-26T07:05:26;37.83;;;16.58;;
35488;SDS011;21602;55.670;37.578;2023-03-26T07:08:11;36.03;;;17.88;;
35488;SDS011;21602;55.670;37.578;2023-03-26T07:10:55;29.50;;;15.52;;
35488;SDS011;21602;55.670;37.578;2023-03-26T07:13:48;33.47;;;16.08;;
35488;SDS011;21602;55.670;37.578;2023-03-26T07:16:46;26.90;;;14.75;;
35488;SDS011;21602;55.670;37.578;2023-03-26T07:19:12;23.67;;;13.45;;
35488;SDS011;21602;55.670;37.578;2023-03-26T07:21:56;33.60;;;13.90;;
35488;SDS011;21602;55.670;37.578;2023-03-26T07:24:46;29.08;;;15.35;;
35488;SDS011;21602;55.670;37.578;2023-03-26T07:43:39;24.27;;;14.00;;
35488;SDS011;21602;55.670;37.578;2023-03-26T07:46:36;15.95;;;10.55;;
35488;SDS011;21602;55.670;37.578;2023-03-26T07:49:53;14.02;;;9.77;;
35488;SDS011;21602;55.670;37.578;2023-03-26T07:52:58;12.32;;;8.90;;
35488;SDS011;21602;55.670;37.578;2023-03-26T07:56:06;12.80;;;9.80;;
35488;SDS011;21602;55.670;37.578;2023-03-26T07:59:04;12.02;;;8.75;;
35488;SDS011;21602;55.670;37.578;2023-03-26T08:01:52;13.90;;;9.93;;
35488;SDS011;21602;55.670;37.578;2023-03-26T08:08:08;12.65;;;9.43;;
35488;SDS011;21602;55.670;37.578;2023-03-26T08:13:58;14.85;;;11.55;;
35488;SDS011;21602;55.670;37.578;2023-03-26T08:16:52;16.38;;;11.07;;
35488;SDS011;21602;55.670;37.578;2023-03-26T08:22:17;11.70;;;9.38;;
35488;SDS011;21602;55.670;37.578;2023-03-26T08:30:28;9.45;;;8.30;;
35488;SDS011;21602;55.670;37.578;2023-03-26T08:35:36;11.45;;;8.13;;
35488;SDS011;21602;55.670;37.578;2023-03-26T08:38:09;13.27;;;8.82;;
35488;SDS011;21602;55.670;37.578;2023-03-26T08:46:52;6.60;;;5.60;;
35488;SDS011;21602;55.670;37.578;2023-03-26T08:52:49;6.60;;;5.20;;
35488;SDS011;21602;55.670;37.578;2023-03-26T09:00:59;8.32;;;4.80;;
35488;SDS011;21602;55.670;37.578;2023-03-26T09:03:54;9.65;;;6.32;;
35488;SDS011;21602;55.670;37.578;2023-03-26T09:29:03;3.28;;;2.97;;
35488;SDS011;21602;55.670;37.578;2023-03-26T09:34:27;3.75;;;3.22;;
35488;SDS011;21602;55.670;37.578;2023-03-26T09:40:16;3.47;;;3.10;;
35488;SDS011;21602;55.670;37.578;2023-03-26T09:51:18;5.13;;;3.72;;
35488;SDS011;21602;55.670;37.578;2023-03-26T10:00:33;8.02;;;6.25;;
35488;SDS011;21602;55.670;37.578;2023-03-26T10:03:14;11.88;;;10.68;;
35488;SDS011;21602;55.670;37.578;2023-03-26T10:06:13;12.43;;;11.18;;
35488;SDS011;21602;55.670;37.578;2023-03-26T10:14:41;24.30;;;21.83;;
35488;SDS011;21602;55.670;37.578;2023-03-26T10:21:27;24.75;;;22.10;;
35488;SDS011;21602;55.670;37.578;2023-03-26T10:27:04;15.60;;;13.93;;
35488;SDS011;21602;55.670;37.578;2023-03-26T10:29:36;17.80;;;14.40;;
35488;SDS011;21602;55.670;37.578;2023-03-26T10:32:37;10.27;;;8.52;;
35488;SDS011;21602;55.670;37.578;2023-03-26T10:35:27;10.88;;;8.55;;
35488;SDS011;21602;55.670;37.578;2023-03-26T10:43:47;9.85;;;7.80;;
35488;SDS011;21602;55.670;37.578;2023-03-26T10:49:26;9.00;;;8.10;;
35488;SDS011;21602;55.670;37.578;2023-03-26T10:51:58;10.95;;;8.23;;
35488;SDS011;21602;55.670;37.578;2023-03-26T10:55:12;9.27;;;8.15;;
35488;SDS011;21602;55.670;37.578;2023-03-26T11:00:42;11.00;;;8.52;;
35488;SDS011;21602;55.670;37.578;2023-03-26T11:03:47;12.57;;;8.38;;
35488;SDS011;21602;55.670;37.578;2023-03-26T11:09:19;12.70;;;9.63;;
35488;SDS011;21602;55.670;37.578;2023-03-26T11:26:05;14.88;;;12.10;;
35488;SDS011;21602;55.670;37.578;2023-03-26T11:31:59;14.40;;;12.30;;
35488;SDS011;21602;55.670;37.578;2023-03-26T11:34:40;16.25;;;12.35;;
35488;SDS011;21602;55.670;37.578;2023-03-26T11:37:14;19.13;;;13.25;;
35488;SDS011;21602;55.670;37.578;2023-03-26T11:39:49;18.38;;;13.85;;
35488;SDS011;21602;55.670;37.578;2023-03-26T11:42:18;18.20;;;13.05;;
35488;SDS011;21602;55.670;37.578;2023-03-26T11:45:02;19.75;;;14.00;;
35488;SDS011;21602;55.670;37.578;2023-03-26T11:47:43;17.48;;;14.00;;
35488;SDS011;21602;55.670;37.578;2023-03-26T11:52:49;17.98;;;14.57;;
35488;SDS011;21602;55.670;37.578;2023-03-26T11:55:15;17.67;;;14.65;;
35488;SDS011;21602;55.670;37.578;2023-03-26T11:57:45;20.42;;;14.93;;
35488;SDS011;21602;55.670;37.578;2023-03-26T12:00:16;21.02;;;15.43;;
35488;SDS011;21602;55.670;37.578;2023-03-26T12:02:46;19.65;;;14.48;;
35488;SDS011;21602;55.670;37.578;2023-03-26T12:07:44;17.90;;;14.75;;
35488;SDS011;21602;55.670;37.578;2023-03-26T12:12:52;19.77;;;14.52;;
35488;SDS011;21602;55.670;37.578;2023-03-26T12:15:21;22.30;;;15.38;;
35488;SDS011;21602;55.670;37.578;2023-03-26T12:17:48;19.88;;;14.07;;
35488;SDS011;21602;55.670;37.578;2023-03-26T12:20:29;19.75;;;15.18;;
35488;SDS011;21602;55.670;37.578;2023-03-26T12:22:58;20.20;;;15.57;;
35488;SDS011;21602;55.670;37.578;2023-03-26T12:25:31;17.63;;;14.75;;
35488;SDS011;21602;55.670;37.578;2023-03-26T12:30:39;23.67;;;15.02;;
35488;SDS011;21602;55.670;37.578;2023-03-26T12:33:13;19.48;;;14.57;;
35488;SDS011;21602;55.670;37.578;2023-03-26T12:35:51;19.80;;;13.82;;
35488;SDS011;21602;55.670;37.578;2023-03-26T12:38:23;18.60;;;14.73;;
35488;SDS011;21602;55.670;37.578;2023-03-26T12:47:06;15.85;;;12.73;;
35488;SDS011;21602;55.670;37.578;2023-03-26T12:49:33;15.68;;;13.38;;
35488;SDS011;21602;55.670;37.578;2023-03-26T12:54:57;16.65;;;13.43;;
35488;SDS011;21602;55.670;37.578;2023-03-26T12:57:44;17.33;;;12.95;;
35488;SDS011;21602;55.670;37.578;2023-03-26T13:00:39;19.05;;;13.50;;
35488;SDS011;21602;55.670;37.578;2023-03-26T13:19:54;14.38;;;11.38;;
35488;SDS011;21602;55.670;37.578;2023-03-26T13:25:08;15.48;;;11.95;;
35488;SDS011;21602;55.670;37.578;2023-03-26T13:28:12;14.52;;;10.75;;
35488;SDS011;21602;55.670;37.578;2023-03-26T13:30:59;13.57;;;9.98;;
35488;SDS011;21602;55.670;37.578;2023-03-26T13:33:37;14.60;;;10.68;;
35488;SDS011;21602;55.670;37.578;2023-03-26T13:36:29;15.55;;;11.18;;
35488;SDS011;21602;55.670;37.578;2023-03-26T13:41:58;13.13;;;10.60;;
35488;SDS011;21602;55.670;37.578;2023-03-26T13:44:44;14.15;;;10.98;;
35488;SDS011;21602;55.670;37.578;2023-03-26T13:47:16;13.15;;;10.60;;
35488;SDS011;21602;55.670;37.578;2023-03-26T13:49:52;14.45;;;10.63;;
35488;SDS011;21602;55.670;37.578;2023-03-26T13:55:15;13.15;;;10.35;;
35488;SDS011;21602;55.670;37.578;2023-03-26T13:58:10;14.57;;;11.52;;
35488;SDS011;21602;55.670;37.578;2023-03-26T14:00:57;14.50;;;9.77;;
35488;SDS011;21602;55.670;37.578;2023-03-26T14:06:39;14.18;;;10.23;;
35488;SDS011;21602;55.670;37.578;2023-03-26T14:12:21;13.32;;;9.93;;
35488;SDS011;21602;55.670;37.578;2023-03-26T14:15:05;13.55;;;10.40;;
35488;SDS011;21602;55.670;37.578;2023-03-26T14:20:22;12.73;;;10.02;;
35488;SDS011;21602;55.670;37.578;2023-03-26T14:47:19;9.63;;;8.05;;
35488;SDS011;21602;55.670;37.578;2023-03-26T14:52:30;9.15;;;7.97;;
35488;SDS011;21602;55.670;37.578;2023-03-26T14:55:05;9.75;;;8.10;;
35488;SDS011;21602;55.670;37.578;2023-03-26T15:00:19;12.02;;;8.73;;
35488;SDS011;21602;55.670;37.578;2023-03-26T15:08:31;10.95;;;7.68;;
35488;SDS011;21602;55.670;37.578;2023-03-26T15:53:36;6.72;;;5.75;;
35488;SDS011;21602;55.670;37.578;2023-03-26T15:56:18;10.57;;;8.07;;
35488;SDS011;21602;55.670;37.578;2023-03-26T15:58:59;8.10;;;6.47;;
35488;SDS011;21602;55.670;37.578;2023-03-26T16:01:43;8.40;;;6.43;;
35488;SDS011;21602;55.670;37.578;2023-03-26T16:04:16;9.75;;;6.90;;
35488;SDS011;21602;55.670;37.578;2023-03-26T16:07:11;7.63;;;6.82;;
35488;SDS011;21602;55.670;37.578;2023-03-26T16:09:52;8.10;;;6.85;;
35488;SDS011;21602;55.670;37.578;2023-03-26T16:12:33;8.88;;;6.35;;
35488;SDS011;21602;55.670;37.578;2023-03-26T16:15:14;8.05;;;6.40;;
35488;SDS011;21602;55.670;37.578;2023-03-26T16:28:34;8.65;;;6.65;;
35488;SDS011;21602;55.670;37.578;2023-03-26T16:33:37;8.35;;;6.65;;
35488;SDS011;21602;55.670;37.578;2023-03-26T16:46:57;7.07;;;6.18;;
35488;SDS011;21602;55.670;37.578;2023-03-26T16:55:53;7.57;;;5.90;;
35488;SDS011;21602;55.670;37.578;2023-03-26T17:01:39;7.72;;;6.03;;
35488;SDS011;21602;55.670;37.578;2023-03-26T17:12:35;9.98;;;7.15;;
35488;SDS011;21602;55.670;37.578;2023-03-26T17:20:34;12.02;;;8.35;;
35488;SDS011;21602;55.670;37.578;2023-03-26T17:26:22;9.73;;;7.68;;
35488;SDS011;21602;55.670;37.578;2023-03-26T17:32:03;9.45;;;7.28;;
35488;SDS011;21602;55.670;37.578;2023-03-26T17:34:40;9.35;;;7.28;;
35488;SDS011;21602;55.670;37.578;2023-03-26T17:42:18;10.75;;;7.88;;
35488;SDS011;21602;55.670;37.578;2023-03-26T17:44:57;13.38;;;8.43;;
35488;SDS011;21602;55.670;37.578;2023-03-26T17:53:04;7.82;;;6.63;;
35488;SDS011;21602;55.670;37.578;2023-03-26T17:55:42;11.57;;;8.00;;
35488;SDS011;21602;55.670;37.578;2023-03-26T17:58:24;9.45;;;7.93;;
35488;SDS011;21602;55.670;37.578;2023-03-26T18:01:11;9.60;;;7.15;;
35488;SDS011;21602;55.670;37.578;2023-03-26T18:04:01;10.38;;;7.30;;
35488;SDS011;21602;55.670;37.578;2023-03-26T18:06:54;13.85;;;8.95;;
35488;SDS011;21602;55.670;37.578;2023-03-26T18:12:55;8.02;;;5.85;;
35488;SDS011;21602;55.670;37.578;2023-03-26T18:15:29;8.93;;;6.60;;
35488;SDS011;21602;55.670;37.578;2023-03-26T18:18:13;8.00;;;6.55;;
35488;SDS011;21602;55.670;37.578;2023-03-26T18:20:44;7.85;;;6.53;;
35488;SDS011;21602;55.670;37.578;2023-03-26T18:23:19;8.77;;;6.78;;
35488;SDS011;21602;55.670;37.578;2023-03-26T18:28:53;7.88;;;6.53;;
35488;SDS011;21602;55.670;37.578;2023-03-26T18:31:55;8.82;;;6.65;;
35488;SDS011;21602;55.670;37.578;2023-03-26T18:34:46;7.63;;;6.35;;
35488;SDS011;21602;55.670;37.578;2023-03-26T18:37:29;8.70;;;6.28;;
35488;SDS011;21602;55.670;37.578;2023-03-26T18:40:13;10.32;;;6.55;;
35488;SDS011;21602;55.670;37.578;2023-03-26T18:42:47;10.40;;;7.22;;
35488;SDS011;21602;55.670;37.578;2023-03-26T18:45:30;8.40;;;6.18;;
35488;SDS011;21602;55.670;37.578;2023-03-26T18:48:26;7.38;;;5.80;;
35488;SDS011;21602;55.670;37.578;2023-03-26T18:50:54;6.90;;;5.95;;
35488;SDS011;21602;55.670;37.578;2023-03-26T18:53:30;7.60;;;5.88;;
35488;SDS011;21602;55.670;37.578;2023-03-26T18:58:58;7.55;;;6.35;;
35488;SDS011;21602;55.670;37.578;2023-03-26T19:01:33;8.15;;;5.88;;
35488;SDS011;21602;55.670;37.578;2023-03-26T19:04:05;8.38;;;6.68;;
35488;SDS011;21602;55.670;37.578;2023-03-26T19:06:33;8.43;;;5.80;;
35488;SDS011;21602;55.670;37.578;2023-03-26T19:09:13;7.78;;;5.90;;
35488;SDS011;21602;55.670;37.578;2023-03-26T19:11:40;8.63;;;6.10;;
35488;SDS011;21602;55.670;37.578;2023-03-26T19:14:20;7.10;;;5.88;;
35488;SDS011;21602;55.670;37.578;2023-03-26T19:16:48;8.50;;;6.20;;
35488;SDS011;21602;55.670;37.578;2023-03-26T19:19:24;7.17;;;5.53;;
35488;SDS011;21602;55.670;37.578;2023-03-26T19:21:55;6.25;;;5.28;;
35488;SDS011;21602;55.670;37.578;2023-03-26T19:24:22;6.70;;;5.65;;
35488;SDS011;21602;55.670;37.578;2023-03-26T19:26:50;6.38;;;5.32;;
35488;SDS011;21602;55.670;37.578;2023-03-26T19:29:18;5.80;;;5.05;;
35488;SDS011;21602;55.670;37.578;2023-03-26T19:31:50;6.68;;;4.93;;
35488;SDS011;21602;55.670;37.578;2023-03-26T19:34:23;7.82;;;5.95;;
35488;SDS011;21602;55.670;37.578;2023-03-26T19:37:00;7.93;;;4.88;;
35488;SDS011;21602;55.670;37.578;2023-03-26T19:39:37;5.90;;;5.13;;
35488;SDS011;21602;55.670;37.578;2023-03-26T19:42:03;7.53;;;5.10;;
35488;SDS011;21602;55.670;37.578;2023-03-26T19:47:01;5.78;;;5.05;;
35488;SDS011;21602;55.670;37.578;2023-03-26T19:49:32;7.00;;;5.40;;
35488;SDS011;21602;55.670;37.578;2023-03-26T19:52:15;7.72;;;5.80;;
35488;SDS011;21602;55.670;37.578;2023-03-26T19:55:00;7.35;;;5.70;;
35488;SDS011;21602;55.670;37.578;2023-03-26T19:57:42;7.95;;;5.78;;
35488;SDS011;21602;55.670;37.578;2023-03-26T20:00:09;7.97;;;6.30;;
35488;SDS011;21602;55.670;37.578;2023-03-26T20:02:41;7.78;;;6.97;;
35488;SDS011;21602;55.670;37.578;2023-03-26T20:05:30;20.77;;;13.68;;
35488;SDS011;21602;55.670;37.578;2023-03-26T20:07:58;9.10;;;7.85;;
35488;SDS011;21602;55.670;37.578;2023-03-26T20:10:29;8.82;;;7.78;;
35488;SDS011;21602;55.670;37.578;2023-03-26T20:12:54;7.40;;;6.45;;
35488;SDS011;21602;55.670;37.578;2023-03-26T20:15:21;9.98;;;7.82;;
35488;SDS011;21602;55.670;37.578;2023-03-26T20:17:50;7.93;;;6.57;;
35488;SDS011;21602;55.670;37.578;2023-03-26T20:20:20;7.70;;;6.90;;
35488;SDS011;21602;55.670;37.578;2023-03-26T20:22:51;8.23;;;7.15;;
35488;SDS011;21602;55.670;37.578;2023-03-26T20:25:22;7.32;;;6.40;;
35488;SDS011;21602;55.670;37.578;2023-03-26T20:27:54;8.93;;;6.85;;
35488;SDS011;21602;55.670;37.578;2023-03-26T20:30:22;8.10;;;7.25;;
35488;SDS011;21602;55.670;37.578;2023-03-26T20:32:49;9.00;;;7.38;;
35488;SDS011;21602;55.670;37.578;2023-03-26T20:35:17;12.00;;;8.95;;
35488;SDS011;21602;55.670;37.578;2023-03-26T20:37:46;17.05;;;10.98;;
35488;SDS011;21602;55.670;37.578;2023-03-26T20:40:12;16.70;;;10.18;;
35488;SDS011;21602;55.670;37.578;2023-03-26T20:42:40;16.85;;;10.75;;
35488;SDS011;21602;55.670;37.578;2023-03-26T20:45:16;17.70;;;9.95;;
35488;SDS011;21602;55.670;37.578;2023-03-26T20:47:46;30.17;;;10.75;;
35488;SDS011;21602;55.670;37.578;2023-03-26T20:50:16;18.38;;;10.57;;
35488;SDS011;21602;55.670;37.578;2023-03-26T20:52:47;21.63;;;9.85;;
35488;SDS011;21602;55.670;37.578;2023-03-26T20:55:15;27.88;;;13.07;;
35488;SDS011;21602;55.670;37.578;2023-03-26T20:57:52;28.80;;;11.50;;
35488;SDS011;21602;55.670;37.578;2023-03-26T21:00:30;22.05;;;10.63;;
35488;SDS011;21602;55.670;37.578;2023-03-26T21:03:14;32.95;;;11.95;;
35488;SDS011;21602;55.670;37.578;2023-03-26T21:05:43;22.55;;;11.45;;
35488;SDS011;21602;55.670;37.578;2023-03-26T21:10:56;24.55;;;12.32;;
35488;SDS011;21602;55.670;37.578;2023-03-26T21:13:50;23.60;;;12.52;;
35488;SDS011;21602;55.670;37.578;2023-03-26T21:16:24;25.05;;;12.30;;
35488;SDS011;21602;55.670;37.578;2023-03-26T21:18:51;20.63;;;11.77;;
35488;SDS011;21602;55.670;37.578;2023-03-26T21:24:56;27.50;;;12.63;;
35488;SDS011;21602;55.670;37.578;2023-03-26T21:27:06;23.80;;;12.70;;
35488;SDS011;21602;55.670;37.578;2023-03-26T21:29:34;26.90;;;12.82;;
35488;SDS011;21602;55.670;37.578;2023-03-26T21:32:01;26.15;;;13.77;;
35488;SDS011;21602;55.670;37.578;2023-03-26T21:34:27;25.65;;;13.07;;
35488;SDS011;21602;55.670;37.578;2023-03-26T21:36:59;27.00;;;12.60;;
35488;SDS011;21602;55.670;37.578;2023-03-26T21:39:26;26.67;;;12.80;;